Time;durP1;ratioP1;P1;durP2;ratioP2;P2;SDS_P1;SDS_P2;PMS_P1;PMS_P2;Temp;Humidity;BMP_temperature;BMP_pressure;BME280_temperature;BME280_humidity;BME280_pressure;Samples;Min_cycle;Max_cycle;Signal;HPM_P1;HPM_P2
2022/06/10 00:02:17;;;;;;;5.70;4.67;;;;;;;;;;5057821;28;25029;-46
2022/06/10 00:04:42;;;;;;;5.75;4.60;;;;;;;;;;5066521;28;24430;-46
2022/06/10 00:07:07;;;;;;;5.50;5.00;;;;;;;;;;5067430;28;25023;-47
2022/06/10 00:09:33;;;;;;;4.70;4.20;;;;;;;;;;5061471;28;24422;-47
2022/06/10 00:11:58;;;;;;;5.20;4.70;;;;;;;;;;5066768;28;24433;-47
2022/06/10 00:14:23;;;;;;;4.50;4.10;;;;;;;;;;5064141;28;24957;-46
2022/06/10 00:16:48;;;;;;;4.63;4.20;;;;;;;;;;5061270;28;24509;-46
2022/06/10 00:19:14;;;;;;;5.50;5.00;;;;;;;;;;5059460;28;24427;-47
2022/06/10 00:21:39;;;;;;;5.13;4.60;;;;;;;;;;5059629;28;24438;-47
2022/06/10 00:24:04;;;;;;;5.00;4.60;;;;;;;;;;5069682;28;24461;-47
2022/06/10 00:26:29;;;;;;;5.70;4.60;;;;;;;;;;5052462;28;24459;-46
2022/06/10 00:28:54;;;;;;;5.43;4.93;;;;;;;;;;5059740;28;24480;-47
2022/06/10 00:31:19;;;;;;;5.00;4.50;;;;;;;;;;5054907;28;25254;-46
2022/06/10 00:33:44;;;;;;;4.70;4.30;;;;;;;;;;5064574;28;25123;-46
2022/06/10 00:36:10;;;;;;;5.50;4.70;;;;;;;;;;5066164;28;24837;-46
2022/06/10 00:38:35;;;;;;;5.22;4.72;;;;;;;;;;5055528;28;24464;-46
2022/06/10 00:41:01;;;;;;;5.00;4.60;;;;;;;;;;5072205;28;24819;-46
2022/06/10 00:43:28;;;;;;;5.85;5.25;;;;;;;;;;5062916;28;24444;-46
2022/06/10 00:46:00;;;;;;;5.07;4.57;;;;;;;;;;5062943;28;24509;-46
2022/06/10 00:48:37;;;;;;;4.50;4.10;;;;;;;;;;5060677;28;24521;-46
2022/06/10 00:51:05;;;;;;;4.97;4.47;;;;;;;;;;5061628;28;24426;-47
2022/06/10 00:53:32;;;;;;;5.70;5.20;;;;;;;;;;5061698;28;24465;-46
2022/06/10 00:55:58;;;;;;;6.50;4.60;;;;;;;;;;5071033;28;24427;-45
2022/06/10 00:58:27;;;;;;;5.83;4.80;;;;;;;;;;5067247;28;24484;-46
2022/06/10 01:00:52;;;;;;;4.97;4.57;;;;;;;;;;5057737;28;24418;-46
2022/06/10 01:03:17;;;;;;;4.67;4.27;;;;;;;;;;5062704;28;24772;-47
2022/06/10 01:05:43;;;;;;;5.20;4.53;;;;;;;;;;5042442;28;24415;-46
2022/06/10 01:08:10;;;;;;;4.90;4.30;;;;;;;;;;5057917;28;24442;-46
2022/06/10 01:10:44;;;;;;;5.72;3.90;;;;;;;;;;5045764;28;24528;-47
2022/06/10 01:13:19;;;;;;;4.83;4.33;;;;;;;;;;5066886;28;24435;-46
2022/06/10 01:15:57;;;;;;;4.47;4.18;;;;;;;;;;5062351;28;24473;-46
2022/06/10 01:18:37;;;;;;;5.15;4.65;;;;;;;;;;5062861;28;25490;-46
2022/06/10 01:21:05;;;;;;;4.78;4.35;;;;;;;;;;5061799;28;24695;-46
2022/06/10 01:23:36;;;;;;;5.25;4.75;;;;;;;;;;5056524;28;24446;-46
2022/06/10 01:26:19;;;;;;;5.07;4.20;;;;;;;;;;5057926;28;24423;-46
2022/06/10 01:29:08;;;;;;;4.53;4.13;;;;;;;;;;5061998;28;25174;-47
2022/06/10 01:31:53;;;;;;;4.40;4.00;;;;;;;;;;5067879;28;24426;-46
2022/06/10 01:34:18;;;;;;;4.30;3.97;;;;;;;;;;5058213;28;24939;-46
2022/06/10 01:36:57;;;;;;;4.73;4.33;;;;;;;;;;5062443;28;24421;-46
2022/06/10 01:39:33;;;;;;;4.57;4.18;;;;;;;;;;5070811;28;24438;-46
2022/06/10 01:42:20;;;;;;;4.97;4.57;;;;;;;;;;5056360;28;25035;-46
2022/06/10 01:45:08;;;;;;;4.88;4.40;;;;;;;;;;5073073;28;25055;-46
2022/06/10 01:47:42;;;;;;;4.80;4.47;;;;;;;;;;5071135;28;24531;-46
2022/06/10 01:50:07;;;;;;;5.68;5.03;;;;;;;;;;5066520;28;24426;-46
2022/06/10 01:52:32;;;;;;;5.63;5.03;;;;;;;;;;5068588;28;24422;-46
2022/06/10 01:55:05;;;;;;;4.70;4.30;;;;;;;;;;5069232;28;24422;-46
2022/06/10 01:57:49;;;;;;;5.25;4.85;;;;;;;;;;5069928;28;24448;-46
2022/06/10 02:00:19;;;;;;;5.60;4.80;;;;;;;;;;5064851;28;24423;-46
2022/06/10 02:02:50;;;;;;;4.90;4.50;;;;;;;;;;5058650;28;25023;-46
2022/06/10 02:05:19;;;;;;;5.10;4.70;;;;;;;;;;5062098;28;24433;-46
2022/06/10 02:07:48;;;;;;;5.20;4.70;;;;;;;;;;5061341;28;24426;-46
2022/06/10 02:10:26;;;;;;;5.40;4.90;;;;;;;;;;5061405;28;24492;-46
2022/06/10 02:13:03;;;;;;;5.63;4.85;;;;;;;;;;5062581;28;24426;-46
2022/06/10 02:15:37;;;;;;;4.90;4.50;;;;;;;;;;5070243;28;24503;-47
2022/06/10 02:18:09;;;;;;;4.80;4.40;;;;;;;;;;5070844;28;24446;-47
2022/06/10 02:20:37;;;;;;;5.30;4.90;;;;;;;;;;5060679;28;24465;-47
2022/06/10 02:23:04;;;;;;;5.10;4.60;;;;;;;;;;5068505;28;24506;-47
2022/06/10 02:25:32;;;;;;;4.80;4.40;;;;;;;;;;5074485;28;25042;-47
2022/06/10 02:27:59;;;;;;;5.22;4.70;;;;;;;;;;5068047;28;24458;-47
2022/06/10 02:30:56;;;;;;;4.88;4.47;;;;;;;;;;5066769;28;24514;-47
2022/06/10 02:33:22;;;;;;;7.07;5.18;;;;;;;;;;5019726;28;24461;-47
2022/06/10 02:35:56;;;;;;;5.27;4.87;;;;;;;;;;5067908;28;24976;-47
2022/06/10 02:38:38;;;;;;;5.45;5.05;;;;;;;;;;5059401;28;24596;-47
2022/06/10 02:41:16;;;;;;;5.40;4.90;;;;;;;;;;5080788;28;24652;-47
2022/06/10 02:43:45;;;;;;;5.10;4.70;;;;;;;;;;5074776;28;24495;-47
2022/06/10 02:46:32;;;;;;;5.60;5.20;;;;;;;;;;5076525;28;24526;-47
2022/06/10 02:49:08;;;;;;;5.90;4.90;;;;;;;;;;5065334;28;24518;-47
2022/06/10 02:51:34;;;;;;;5.20;4.70;;;;;;;;;;5066681;28;24442;-47
2022/06/10 02:54:00;;;;;;;5.18;4.53;;;;;;;;;;5055117;28;24971;-47
2022/06/10 02:56:26;;;;;;;5.10;4.70;;;;;;;;;;5067522;28;24469;-47
2022/06/10 03:01:50;;;;;;;5.30;4.90;;;;;;;;;;5067658;28;24809;-47
2022/06/10 03:04:33;;;;;;;5.55;5.05;;;;;;;;;;5067818;28;25163;-47
2022/06/10 03:07:11;;;;;;;5.10;4.60;;;;;;;;;;5068454;28;24517;-47
2022/06/10 03:09:41;;;;;;;5.93;5.13;;;;;;;;;;5062935;28;24480;-47
2022/06/10 03:12:23;;;;;;;5.18;4.60;;;;;;;;;;5074831;28;24430;-47
2022/06/10 03:14:51;;;;;;;5.28;4.88;;;;;;;;;;5056250;28;24960;-47
2022/06/10 03:17:22;;;;;;;4.75;4.35;;;;;;;;;;5059200;28;24899;-47
2022/06/10 03:19:52;;;;;;;4.88;4.40;;;;;;;;;;5056807;28;24434;-46
2022/06/10 03:22:35;;;;;;;5.10;4.70;;;;;;;;;;5069147;28;24529;-46
2022/06/10 03:25:12;;;;;;;5.13;4.67;;;;;;;;;;5066483;28;24506;-47
2022/06/10 03:27:44;;;;;;;4.80;4.40;;;;;;;;;;5065127;28;24645;-46
2022/06/10 03:30:12;;;;;;;5.30;4.90;;;;;;;;;;5047031;28;24430;-47
2022/06/10 03:32:42;;;;;;;4.60;4.20;;;;;;;;;;5059519;28;24518;-46
2022/06/10 03:35:16;;;;;;;5.07;4.57;;;;;;;;;;5080163;28;24499;-46
2022/06/10 03:37:42;;;;;;;4.95;4.55;;;;;;;;;;5076733;28;24469;-46
2022/06/10 03:40:12;;;;;;;4.90;4.50;;;;;;;;;;5075499;28;24414;-47
2022/06/10 03:42:37;;;;;;;4.90;4.50;;;;;;;;;;5057794;28;24832;-47
2022/06/10 03:45:02;;;;;;;5.00;4.60;;;;;;;;;;5077616;28;25025;-47
2022/06/10 03:47:30;;;;;;;5.07;4.67;;;;;;;;;;5076898;28;24475;-47
2022/06/10 03:49:57;;;;;;;4.50;4.20;;;;;;;;;;5065432;28;24425;-47
2022/06/10 03:52:24;;;;;;;4.53;4.22;;;;;;;;;;5061029;28;24427;-47
2022/06/10 03:54:49;;;;;;;4.80;4.40;;;;;;;;;;5070480;28;24429;-47
2022/06/10 03:57:16;;;;;;;4.95;4.50;;;;;;;;;;5063986;28;24423;-47
2022/06/10 03:59:42;;;;;;;4.70;4.30;;;;;;;;;;5065581;28;24513;-47
2022/06/10 04:02:07;;;;;;;4.60;4.20;;;;;;;;;;5068687;28;24418;-47
2022/06/10 04:04:32;;;;;;;6.03;4.72;;;;;;;;;;5061812;28;25030;-48
2022/06/10 04:06:57;;;;;;;5.10;4.60;;;;;;;;;;5061153;28;24572;-47
2022/06/10 04:09:22;;;;;;;5.15;4.75;;;;;;;;;;5070215;28;24422;-47
2022/06/10 04:11:48;;;;;;;5.60;5.20;;;;;;;;;;5065207;28;24513;-47
2022/06/10 04:14:13;;;;;;;4.83;4.33;;;;;;;;;;5048954;28;25217;-47
2022/06/10 04:16:38;;;;;;;5.03;4.53;;;;;;;;;;5063872;28;24517;-47
2022/06/10 04:19:03;;;;;;;5.32;4.80;;;;;;;;;;5053163;28;24550;-47
2022/06/10 04:21:28;;;;;;;5.00;4.50;;;;;;;;;;5056637;28;24411;-47
2022/06/10 04:23:53;;;;;;;4.70;4.30;;;;;;;;;;5063825;28;24395;-47
2022/06/10 04:26:19;;;;;;;5.28;3.90;;;;;;;;;;5062348;28;24834;-47
2022/06/10 04:28:44;;;;;;;4.65;4.25;;;;;;;;;;5061630;28;24429;-47
2022/06/10 04:31:09;;;;;;;4.18;3.70;;;;;;;;;;5058797;28;25047;-47
2022/06/10 04:33:35;;;;;;;4.20;3.90;;;;;;;;;;5055946;28;24407;-47
2022/06/10 04:36:01;;;;;;;4.70;4.13;;;;;;;;;;5057188;28;24479;-47
2022/06/10 04:38:26;;;;;;;5.10;3.70;;;;;;;;;;5065239;28;24437;-47
2022/06/10 04:40:51;;;;;;;3.83;3.50;;;;;;;;;;5067479;28;24801;-47
2022/06/10 04:43:16;;;;;;;3.80;3.40;;;;;;;;;;5071393;28;25031;-47
2022/06/10 04:45:49;;;;;;;4.20;3.50;;;;;;;;;;5051931;28;24492;-48
2022/06/10 04:48:15;;;;;;;3.80;3.50;;;;;;;;;;5059025;28;24422;-47
2022/06/10 04:50:40;;;;;;;3.73;3.43;;;;;;;;;;5062948;28;25038;-47
2022/06/10 04:53:05;;;;;;;3.30;3.10;;;;;;;;;;5059957;28;24557;-48
2022/06/10 04:55:31;;;;;;;3.70;3.40;;;;;;;;;;5073989;28;24438;-47
2022/06/10 04:57:56;;;;;;;4.57;4.20;;;;;;;;;;5073710;28;24713;-48
2022/06/10 05:00:25;;;;;;;4.00;3.50;;;;;;;;;;5059693;28;24590;-47
2022/06/10 05:02:50;;;;;;;3.92;3.63;;;;;;;;;;5070419;28;24537;-47
2022/06/10 05:05:15;;;;;;;3.88;3.20;;;;;;;;;;5083437;28;24537;-48
2022/06/10 05:07:41;;;;;;;3.50;3.30;;;;;;;;;;5076882;28;24421;-48
2022/06/10 05:10:06;;;;;;;3.20;3.00;;;;;;;;;;5078679;28;24487;-48
2022/06/10 05:12:31;;;;;;;3.00;2.80;;;;;;;;;;5058686;28;24442;-47
2022/06/10 05:14:56;;;;;;;3.70;3.40;;;;;;;;;;5059867;28;24419;-48
2022/06/10 05:17:22;;;;;;;3.20;2.90;;;;;;;;;;5068857;28;24962;-47
2022/06/10 05:19:47;;;;;;;5.30;3.10;;;;;;;;;;5071280;28;24429;-48
2022/06/10 05:22:13;;;;;;;3.13;2.93;;;;;;;;;;5048042;28;24456;-48
2022/06/10 05:24:38;;;;;;;3.90;3.08;;;;;;;;;;5055039;28;25026;-48
2022/06/10 05:27:04;;;;;;;3.20;2.80;;;;;;;;;;5071889;28;24461;-48
2022/06/10 05:29:29;;;;;;;3.38;3.17;;;;;;;;;;5083393;28;24390;-48
2022/06/10 05:31:55;;;;;;;4.32;3.22;;;;;;;;;;5081629;28;24439;-48
2022/06/10 05:37:04;;;;;;;2.90;2.70;;;;;;;;;;5057469;28;25050;-48
2022/06/10 05:39:29;;;;;;;3.00;2.80;;;;;;;;;;5061290;28;24514;-45
2022/06/10 05:42:07;;;;;;;3.47;2.80;;;;;;;;;;5059172;28;24770;-48
2022/06/10 05:44:33;;;;;;;2.90;2.70;;;;;;;;;;5062708;28;24415;-47
2022/06/10 05:47:00;;;;;;;2.20;2.10;;;;;;;;;;5052053;28;24430;-45
2022/06/10 05:49:26;;;;;;;2.72;2.40;;;;;;;;;;5055679;28;24414;-46
2022/06/10 05:51:51;;;;;;;2.88;2.67;;;;;;;;;;5064120;28;24994;-46
2022/06/10 05:54:16;;;;;;;2.40;2.20;;;;;;;;;;5060730;28;25059;-45
2022/06/10 05:56:43;;;;;;;3.57;2.47;;;;;;;;;;5058802;28;24808;-45
2022/06/10 05:59:08;;;;;;;2.55;2.35;;;;;;;;;;5069404;28;24541;-47
2022/06/10 06:01:34;;;;;;;2.90;2.45;;;;;;;;;;5062961;28;24530;-46
2022/06/10 06:03:59;;;;;;;2.60;2.40;;;;;;;;;;5060068;28;24430;-46
2022/06/10 06:06:24;;;;;;;2.58;2.30;;;;;;;;;;5061059;28;24423;-45
2022/06/10 06:08:49;;;;;;;2.30;2.10;;;;;;;;;;5060028;28;25225;-45
2022/06/10 06:11:15;;;;;;;2.30;2.10;;;;;;;;;;5057673;28;24395;-46
2022/06/10 06:13:40;;;;;;;2.00;1.90;;;;;;;;;;5056275;28;24434;-45
2022/06/10 06:16:05;;;;;;;2.28;2.08;;;;;;;;;;5062865;28;24398;-46
2022/06/10 06:18:30;;;;;;;2.87;2.00;;;;;;;;;;5069610;28;24499;-45
2022/06/10 06:20:56;;;;;;;2.20;2.08;;;;;;;;;;5076724;28;24419;-46
2022/06/10 06:23:21;;;;;;;3.28;2.20;;;;;;;;;;5053651;28;24960;-46
2022/06/10 06:25:46;;;;;;;2.40;2.20;;;;;;;;;;5049922;28;24450;-45
2022/06/10 06:28:11;;;;;;;3.58;2.42;;;;;;;;;;5036934;28;24402;-45
2022/06/10 06:30:37;;;;;;;2.53;2.10;;;;;;;;;;5043553;28;24929;-45
2022/06/10 06:33:04;;;;;;;2.70;2.40;;;;;;;;;;5052295;28;24417;-45
2022/06/10 06:35:30;;;;;;;3.20;2.40;;;;;;;;;;5065932;28;24407;-45
2022/06/10 06:37:55;;;;;;;2.78;2.47;;;;;;;;;;5064031;28;24450;-45
2022/06/10 06:40:21;;;;;;;2.30;1.95;;;;;;;;;;5059034;28;24406;-46
2022/06/10 06:42:47;;;;;;;3.30;2.30;;;;;;;;;;5063663;28;24391;-46
2022/06/10 06:45:12;;;;;;;2.50;2.30;;;;;;;;;;5062910;28;24439;-45
2022/06/10 06:47:37;;;;;;;2.40;2.20;;;;;;;;;;5065722;28;24738;-45
2022/06/10 06:50:03;;;;;;;2.50;2.30;;;;;;;;;;5062089;28;24497;-46
2022/06/10 06:52:28;;;;;;;1.90;1.80;;;;;;;;;;5060505;28;24418;-45
2022/06/10 06:54:53;;;;;;;4.15;2.33;;;;;;;;;;5062926;28;24446;-46
2022/06/10 06:57:20;;;;;;;3.63;2.20;;;;;;;;;;5064600;28;24797;-46
2022/06/10 06:59:45;;;;;;;2.03;1.77;;;;;;;;;;5065413;28;24383;-46
2022/06/10 07:02:10;;;;;;;3.10;2.00;;;;;;;;;;5063611;28;24390;-46
2022/06/10 07:04:35;;;;;;;2.50;2.30;;;;;;;;;;5063704;28;24390;-45
2022/06/10 07:07:00;;;;;;;2.47;2.17;;;;;;;;;;5060775;28;24956;-45
2022/06/10 07:09:26;;;;;;;2.53;1.85;;;;;;;;;;5065571;28;24394;-46
2022/06/10 07:11:51;;;;;;;2.40;2.20;;;;;;;;;;5064517;28;24565;-45
2022/06/10 07:14:16;;;;;;;2.20;2.10;;;;;;;;;;5062493;28;24801;-45
2022/06/10 07:16:42;;;;;;;2.80;2.50;;;;;;;;;;5059721;28;24494;-47
2022/06/10 07:19:08;;;;;;;2.07;1.87;;;;;;;;;;5061443;28;24419;-46
2022/06/10 07:21:33;;;;;;;2.80;2.60;;;;;;;;;;5064249;28;24912;-46
2022/06/10 07:23:58;;;;;;;2.83;2.23;;;;;;;;;;5063061;28;24499;-46
2022/06/10 07:26:23;;;;;;;2.95;2.65;;;;;;;;;;5061448;28;24395;-47
2022/06/10 07:28:49;;;;;;;2.40;2.20;;;;;;;;;;5060892;28;24452;-46
2022/06/10 07:31:14;;;;;;;3.03;2.30;;;;;;;;;;5063354;28;24401;-46
2022/06/10 07:33:39;;;;;;;2.30;2.10;;;;;;;;;;5063503;28;24426;-46
2022/06/10 07:36:06;;;;;;;2.00;1.80;;;;;;;;;;5063328;28;24398;-47
2022/06/10 07:38:32;;;;;;;2.40;2.20;;;;;;;;;;5063305;28;24498;-47
2022/06/10 07:43:42;;;;;;;2.80;2.10;;;;;;;;;;5057922;28;24508;-46
2022/06/10 07:46:08;;;;;;;2.83;2.10;;;;;;;;;;5063653;28;24434;-46
2022/06/10 07:48:33;;;;;;;2.45;2.15;;;;;;;;;;5064355;28;24506;-47
2022/06/10 07:50:59;;;;;;;2.93;2.40;;;;;;;;;;5062648;28;24486;-47
2022/06/10 07:53:24;;;;;;;2.88;2.20;;;;;;;;;;5059265;28;24805;-47
2022/06/10 07:55:49;;;;;;;2.20;2.00;;;;;;;;;;5060090;28;24550;-46
2022/06/10 07:58:16;;;;;;;3.70;2.40;;;;;;;;;;5060719;28;24414;-47
2022/06/10 08:00:41;;;;;;;2.80;1.92;;;;;;;;;;5064274;28;24387;-47
2022/06/10 08:03:06;;;;;;;2.30;1.90;;;;;;;;;;5062405;28;24402;-47
2022/06/10 08:05:32;;;;;;;2.50;1.80;;;;;;;;;;5059322;28;24916;-47
2022/06/10 08:07:57;;;;;;;2.47;2.27;;;;;;;;;;5057355;28;24419;-47
2022/06/10 08:10:27;;;;;;;2.97;2.30;;;;;;;;;;5064324;28;24399;-46
2022/06/10 08:12:52;;;;;;;2.20;2.00;;;;;;;;;;5062203;28;24422;-46
2022/06/10 08:15:19;;;;;;;2.80;2.20;;;;;;;;;;5064171;28;24422;-46
2022/06/10 08:17:44;;;;;;;3.47;2.20;;;;;;;;;;5062270;28;24415;-47
2022/06/10 08:20:19;;;;;;;2.30;2.10;;;;;;;;;;5057775;28;24487;-46
2022/06/10 08:22:44;;;;;;;3.17;2.00;;;;;;;;;;5058320;28;24493;-47
2022/06/10 08:25:10;;;;;;;3.50;2.30;;;;;;;;;;5062301;28;24490;-47
2022/06/10 08:27:35;;;;;;;4.23;2.30;;;;;;;;;;5063438;28;25011;-46
2022/06/10 08:30:02;;;;;;;3.97;2.60;;;;;;;;;;5061864;28;24387;-46
2022/06/10 08:32:27;;;;;;;2.00;1.90;;;;;;;;;;5060161;28;24390;-46
2022/06/10 08:34:53;;;;;;;3.40;2.70;;;;;;;;;;5060170;28;24782;-46
2022/06/10 08:37:18;;;;;;;2.90;2.60;;;;;;;;;;5063820;28;24391;-48
2022/06/10 08:39:43;;;;;;;2.40;2.20;;;;;;;;;;5061310;28;24574;-47
2022/06/10 08:42:08;;;;;;;3.08;2.50;;;;;;;;;;5058408;28;24928;-48
2022/06/10 08:44:45;;;;;;;4.30;2.87;;;;;;;;;;5060128;28;24415;-46
2022/06/10 08:47:16;;;;;;;4.20;3.00;;;;;;;;;;5062654;28;24418;-46
2022/06/10 08:49:59;;;;;;;2.60;2.40;;;;;;;;;;5063519;28;24402;-46
2022/06/10 08:52:40;;;;;;;4.40;2.70;;;;;;;;;;5063386;28;24394;-47
2022/06/10 08:55:11;;;;;;;2.95;2.75;;;;;;;;;;5057961;28;24456;-46
2022/06/10 08:57:41;;;;;;;3.40;2.50;;;;;;;;;;5056980;28;24976;-46
2022/06/10 09:00:17;;;;;;;2.95;2.70;;;;;;;;;;5062173;28;24511;-46
2022/06/10 09:02:46;;;;;;;3.13;2.30;;;;;;;;;;5063342;28;24464;-46
2022/06/10 09:05:17;;;;;;;3.13;2.20;;;;;;;;;;5061404;28;25031;-46
2022/06/10 09:07:48;;;;;;;2.92;2.60;;;;;;;;;;5063096;28;24397;-47
2022/06/10 09:10:19;;;;;;;3.28;2.70;;;;;;;;;;5057232;28;24434;-46
2022/06/10 09:12:58;;;;;;;2.72;2.40;;;;;;;;;;5057981;28;24537;-47
2022/06/10 09:15:24;;;;;;;2.95;2.65;;;;;;;;;;5063387;28;24793;-47
2022/06/10 09:17:53;;;;;;;3.58;2.90;;;;;;;;;;5063255;28;24498;-46
2022/06/10 09:20:25;;;;;;;3.10;2.80;;;;;;;;;;5061539;28;24620;-46
2022/06/10 09:23:10;;;;;;;2.90;2.63;;;;;;;;;;5061087;28;25130;-45
2022/06/10 09:25:42;;;;;;;3.20;2.70;;;;;;;;;;5057684;28;24928;-48
2022/06/10 09:28:07;;;;;;;2.70;2.50;;;;;;;;;;5061074;28;24959;-46
2022/06/10 09:30:43;;;;;;;3.10;2.60;;;;;;;;;;5063210;28;24407;-46
2022/06/10 09:33:23;;;;;;;2.80;2.28;;;;;;;;;;5061396;28;24398;-46
2022/06/10 09:36:03;;;;;;;3.25;3.00;;;;;;;;;;5059375;28;24403;-47
2022/06/10 09:38:40;;;;;;;3.50;2.80;;;;;;;;;;5059389;28;24461;-46
2022/06/10 09:41:18;;;;;;;4.43;2.67;;;;;;;;;;5059769;28;24434;-47
2022/06/10 09:43:48;;;;;;;2.83;2.63;;;;;;;;;;5062491;28;24948;-47
2022/06/10 09:46:16;;;;;;;3.00;2.70;;;;;;;;;;5061481;28;24436;-47
2022/06/10 09:48:46;;;;;;;2.58;2.38;;;;;;;;;;5059141;28;24486;-47
2022/06/10 09:51:30;;;;;;;3.10;2.90;;;;;;;;;;5057786;28;24531;-46
2022/06/10 09:54:14;;;;;;;4.40;3.10;;;;;;;;;;5061083;28;24398;-47
2022/06/10 09:56:57;;;;;;;3.03;2.72;;;;;;;;;;5062837;28;24486;-47
2022/06/10 09:59:26;;;;;;;4.30;2.70;;;;;;;;;;5060827;28;24499;-47
2022/06/10 10:02:10;;;;;;;2.80;2.60;;;;;;;;;;5057859;28;24556;-47
2022/06/10 10:04:35;;;;;;;3.45;3.15;;;;;;;;;;5064406;28;24391;-47
2022/06/10 10:07:10;;;;;;;3.35;2.88;;;;;;;;;;5064613;28;24417;-47
2022/06/10 10:09:50;;;;;;;2.80;2.42;;;;;;;;;;5066214;28;24386;-46
2022/06/10 10:12:28;;;;;;;4.47;2.60;;;;;;;;;;5061281;28;24426;-47
2022/06/10 10:15:05;;;;;;;3.00;2.70;;;;;;;;;;5062844;28;25005;-47
2022/06/10 10:17:33;;;;;;;3.30;3.00;;;;;;;;;;5066714;28;24422;-47
2022/06/10 10:20:12;;;;;;;5.93;2.85;;;;;;;;;;5064150;28;24773;-46
2022/06/10 10:22:44;;;;;;;5.00;2.60;;;;;;;;;;5065006;28;24991;-46
2022/06/10 10:25:14;;;;;;;2.60;2.40;;;;;;;;;;5062714;28;24483;-46
2022/06/10 10:27:39;;;;;;;2.40;2.20;;;;;;;;;;5060966;28;24537;-47
2022/06/10 10:30:25;;;;;;;3.13;2.50;;;;;;;;;;5062306;28;24774;-47
2022/06/10 10:32:55;;;;;;;2.55;2.20;;;;;;;;;;5056399;28;24460;-46
2022/06/10 10:35:32;;;;;;;3.17;2.88;;;;;;;;;;5064401;28;24485;-46
2022/06/10 10:38:06;;;;;;;2.80;2.40;;;;;;;;;;5064226;28;24524;-46
2022/06/10 10:40:42;;;;;;;3.67;2.50;;;;;;;;;;5060581;28;24749;-46
2022/06/10 10:43:20;;;;;;;2.70;2.50;;;;;;;;;;5061911;28;24391;-47
2022/06/10 10:46:03;;;;;;;3.10;2.10;;;;;;;;;;5064476;28;24419;-46
2022/06/10 10:48:33;;;;;;;2.40;2.10;;;;;;;;;;5066162;28;24410;-48
2022/06/10 10:51:10;;;;;;;3.05;2.47;;;;;;;;;;5061998;28;24758;-47
2022/06/10 10:53:43;;;;;;;2.70;2.50;;;;;;;;;;5060533;28;24390;-46
2022/06/10 10:56:10;;;;;;;2.33;2.00;;;;;;;;;;5063947;28;24395;-46
2022/06/10 10:58:37;;;;;;;2.10;1.90;;;;;;;;;;5064820;28;25076;-46
2022/06/10 11:01:09;;;;;;;2.83;1.80;;;;;;;;;;5063820;28;24506;-48
2022/06/10 11:03:42;;;;;;;2.42;2.08;;;;;;;;;;5061594;28;25265;-47
2022/06/10 11:06:18;;;;;;;2.28;2.08;;;;;;;;;;5059926;28;24407;-47
2022/06/10 11:08:53;;;;;;;2.40;2.20;;;;;;;;;;5062253;28;24545;-47
2022/06/10 11:11:24;;;;;;;2.25;1.70;;;;;;;;;;5065407;28;24985;-46
2022/06/10 11:14:00;;;;;;;3.05;2.30;;;;;;;;;;5065505;28;24437;-46
2022/06/10 11:16:32;;;;;;;2.80;2.10;;;;;;;;;;5063603;28;25012;-47
2022/06/10 11:18:59;;;;;;;2.40;2.05;;;;;;;;;;5059573;28;24427;-46
2022/06/10 11:21:27;;;;;;;2.90;2.55;;;;;;;;;;5060317;28;24395;-47
2022/06/10 11:23:54;;;;;;;2.20;2.10;;;;;;;;;;5063437;28;24398;-47
2022/06/10 11:26:21;;;;;;;3.10;2.30;;;;;;;;;;5065369;28;24761;-46
2022/06/10 11:28:47;;;;;;;2.50;2.30;;;;;;;;;;5063994;28;24476;-46
2022/06/10 11:31:23;;;;;;;2.55;2.25;;;;;;;;;;5059561;28;24410;-47
2022/06/10 11:33:51;;;;;;;3.20;2.13;;;;;;;;;;5061541;28;24485;-46
2022/06/10 11:36:27;;;;;;;2.42;2.22;;;;;;;;;;5061231;28;24476;-46
2022/06/10 11:39:04;;;;;;;3.60;2.55;;;;;;;;;;5061213;28;24470;-46
2022/06/10 11:41:31;;;;;;;2.47;1.90;;;;;;;;;;5063055;28;24663;-47
2022/06/10 11:44:05;;;;;;;2.33;2.13;;;;;;;;;;5060821;28;24996;-47
2022/06/10 11:46:36;;;;;;;1.70;1.60;;;;;;;;;;5063424;28;24414;-46
2022/06/10 11:49:04;;;;;;;2.75;2.00;;;;;;;;;;5062368;28;24996;-47
2022/06/10 11:51:39;;;;;;;2.00;1.70;;;;;;;;;;5065065;28;24414;-46
2022/06/10 11:54:09;;;;;;;3.20;2.20;;;;;;;;;;5062516;28;24448;-47
2022/06/10 11:59:44;;;;;;;2.90;2.60;;;;;;;;;;5058166;28;24481;-46
2022/06/10 12:02:11;;;;;;;2.10;1.90;;;;;;;;;;5032750;28;24514;-47
2022/06/10 12:04:43;;;;;;;2.70;1.95;;;;;;;;;;5064102;28;24472;-47
2022/06/10 12:07:17;;;;;;;2.90;2.10;;;;;;;;;;5060802;28;24398;-47
2022/06/10 12:09:49;;;;;;;2.33;2.05;;;;;;;;;;5058117;28;24485;-46
2022/06/10 12:12:23;;;;;;;2.20;2.00;;;;;;;;;;5060488;28;24442;-46
2022/06/10 12:14:50;;;;;;;2.47;2.17;;;;;;;;;;5062877;28;24493;-46
2022/06/10 12:17:35;;;;;;;3.60;1.90;;;;;;;;;;5062364;28;24397;-46
2022/06/10 12:20:06;;;;;;;3.85;2.53;;;;;;;;;;5062348;28;24402;-46
2022/06/10 12:22:32;;;;;;;3.70;2.40;;;;;;;;;;5055457;28;24516;-47
2022/06/10 12:24:58;;;;;;;3.35;2.20;;;;;;;;;;5057869;28;24592;-46
2022/06/10 12:27:27;;;;;;;4.57;2.50;;;;;;;;;;5063273;28;24481;-46
2022/06/10 12:30:04;;;;;;;2.67;2.00;;;;;;;;;;5064008;28;24761;-46
2022/06/10 12:32:39;;;;;;;2.47;2.27;;;;;;;;;;5061636;28;24399;-47
2022/06/10 12:35:04;;;;;;;2.50;2.10;;;;;;;;;;5059232;28;24382;-46
2022/06/10 12:37:44;;;;;;;2.27;2.07;;;;;;;;;;5060081;28;24749;-46
2022/06/10 12:40:17;;;;;;;2.50;2.30;;;;;;;;;;5061628;28;24387;-46
2022/06/10 12:42:46;;;;;;;2.30;2.10;;;;;;;;;;5063620;28;24473;-46
2022/06/10 12:45:18;;;;;;;1.95;1.80;;;;;;;;;;5057998;28;24479;-46
2022/06/10 12:47:44;;;;;;;1.98;1.80;;;;;;;;;;5060431;28;25095;-46
2022/06/10 12:51:09;;;;;;;2.40;2.20;;;;;;;;;;5064081;28;24876;-46
2022/06/10 12:53:30;;;;;;;2.58;2.38;;;;;;;;;;5050464;28;24993;-47
2022/06/10 12:55:56;;;;;;;2.05;1.90;;;;;;;;;;5063726;28;24797;-46
2022/06/10 12:58:39;;;;;;;2.33;2.00;;;;;;;;;;5062626;28;24521;-47
2022/06/10 13:01:10;;;;;;;2.10;1.77;;;;;;;;;;5071767;28;24434;-47
2022/06/10 13:03:37;;;;;;;2.72;2.35;;;;;;;;;;5060649;28;24427;-47
2022/06/10 13:06:05;;;;;;;2.55;2.35;;;;;;;;;;5057871;28;24391;-48
2022/06/10 13:08:30;;;;;;;2.10;2.00;;;;;;;;;;5060880;28;24430;-47
2022/06/10 13:10:57;;;;;;;3.25;2.17;;;;;;;;;;5059466;28;24435;-47
2022/06/10 13:13:23;;;;;;;4.57;2.70;;;;;;;;;;5061157;28;25050;-47
2022/06/10 13:15:50;;;;;;;3.00;2.58;;;;;;;;;;5056683;28;24480;-46
2022/06/10 13:18:15;;;;;;;3.10;2.70;;;;;;;;;;5055930;28;24494;-46
2022/06/10 13:20:40;;;;;;;2.40;2.20;;;;;;;;;;5062939;28;24480;-46
2022/06/10 13:23:06;;;;;;;3.30;2.20;;;;;;;;;;5060620;28;24888;-47
2022/06/10 13:25:31;;;;;;;2.27;1.83;;;;;;;;;;5063206;28;24410;-46
2022/06/10 13:27:58;;;;;;;1.93;1.73;;;;;;;;;;5059507;28;24402;-47
2022/06/10 13:30:25;;;;;;;2.25;2.05;;;;;;;;;;5059358;28;24466;-46
2022/06/10 13:32:56;;;;;;;2.67;2.00;;;;;;;;;;5061973;28;24409;-47
2022/06/10 13:35:23;;;;;;;1.90;1.80;;;;;;;;;;5063819;28;24426;-46
2022/06/10 13:37:52;;;;;;;2.42;2.22;;;;;;;;;;5063296;28;24785;-48
2022/06/10 13:40:22;;;;;;;2.77;2.00;;;;;;;;;;5057659;28;24476;-47
2022/06/10 13:42:51;;;;;;;2.05;1.95;;;;;;;;;;5064698;28;24441;-46
2022/06/10 13:45:21;;;;;;;2.10;2.00;;;;;;;;;;5075341;28;24483;-47
2022/06/10 13:47:54;;;;;;;1.90;1.80;;;;;;;;;;5065895;28;24406;-46
2022/06/10 13:53:18;;;;;;;2.50;1.98;;;;;;;;;;5055874;28;24415;-47
2022/06/10 13:55:50;;;;;;;2.20;2.00;;;;;;;;;;5047746;28;24375;-46
2022/06/10 13:58:19;;;;;;;3.15;2.20;;;;;;;;;;5061442;28;24442;-46
2022/06/10 14:00:47;;;;;;;2.87;1.90;;;;;;;;;;5059919;28;25196;-47
2022/06/10 14:03:24;;;;;;;3.45;2.20;;;;;;;;;;5064249;28;24422;-47
2022/06/10 14:05:57;;;;;;;2.00;1.80;;;;;;;;;;5076347;28;24453;-47
2022/06/10 14:08:22;;;;;;;2.90;1.90;;;;;;;;;;5087749;28;24420;-47
2022/06/10 14:10:50;;;;;;;2.00;1.80;;;;;;;;;;5086891;28;24410;-47
2022/06/10 14:13:23;;;;;;;2.67;1.70;;;;;;;;;;5076769;28;24410;-47
2022/06/10 14:15:50;;;;;;;2.30;1.90;;;;;;;;;;5067066;28;24507;-46
2022/06/10 14:18:17;;;;;;;2.20;2.00;;;;;;;;;;5065259;28;24970;-46
2022/06/10 14:20:42;;;;;;;2.08;1.92;;;;;;;;;;5051918;28;25363;-47
2022/06/10 14:23:21;;;;;;;2.80;1.90;;;;;;;;;;5043147;28;24407;-47
2022/06/10 14:26:05;;;;;;;2.05;1.80;;;;;;;;;;5044712;28;24392;-47
2022/06/10 14:28:30;;;;;;;1.70;1.60;;;;;;;;;;5046333;28;24459;-47
2022/06/10 14:30:59;;;;;;;1.80;1.70;;;;;;;;;;5045918;28;24984;-46
2022/06/10 14:33:32;;;;;;;2.10;1.90;;;;;;;;;;5046123;28;24508;-45
2022/06/10 14:36:11;;;;;;;2.20;2.00;;;;;;;;;;5062702;28;24406;-46
2022/06/10 14:38:37;;;;;;;2.30;2.00;;;;;;;;;;5065543;28;24421;-48
2022/06/10 14:41:16;;;;;;;1.90;1.80;;;;;;;;;;5064143;28;24490;-47
2022/06/10 14:43:56;;;;;;;2.20;2.00;;;;;;;;;;5064100;28;24524;-46
2022/06/10 14:46:24;;;;;;;2.20;2.00;;;;;;;;;;5062335;28;24449;-48
2022/06/10 14:48:50;;;;;;;2.07;1.80;;;;;;;;;;5062138;28;24825;-47
2022/06/10 14:51:30;;;;;;;2.40;2.20;;;;;;;;;;5063290;28;24988;-47
2022/06/10 14:53:57;;;;;;;2.50;2.30;;;;;;;;;;5063932;28;24425;-47
2022/06/10 14:56:29;;;;;;;2.50;2.30;;;;;;;;;;5062072;28;25013;-47
2022/06/10 14:58:55;;;;;;;2.30;2.10;;;;;;;;;;5061912;28;24425;-46
2022/06/10 15:01:24;;;;;;;3.08;2.40;;;;;;;;;;5061886;28;24928;-48
2022/06/10 15:03:49;;;;;;;2.40;2.17;;;;;;;;;;5065458;28;24750;-48
2022/06/10 15:06:23;;;;;;;2.20;2.10;;;;;;;;;;5061917;28;24977;-47
2022/06/10 15:08:49;;;;;;;2.50;2.10;;;;;;;;;;5065641;28;24942;-47
2022/06/10 15:11:15;;;;;;;2.25;1.92;;;;;;;;;;5059745;28;24734;-47
2022/06/10 15:13:41;;;;;;;2.20;2.00;;;;;;;;;;5057407;28;24971;-48